Time;durP1;ratioP1;P1;durP2;ratioP2;P2;SDS_P1;SDS_P2;PMS_P1;PMS_P2;Temp;Humidity;BMP_temperature;BMP_pressure;BME280_temperature;BME280_humidity;BME280_pressure;Samples;Min_cycle;Max_cycle;Signal;HPM_P1;HPM_P2
2024/04/22 00:01:12;;;;;;;4.77;2.80;;;;;;;;;;5414577;26;20725;-69
2024/04/22 00:03:37;;;;;;;3.87;2.40;;;;;;;;;;5417372;26;20230;-69
2024/04/22 00:06:03;;;;;;;3.67;2.60;;;;;;;;;;5418106;26;20230;-69
2024/04/22 00:08:28;;;;;;;3.20;2.50;;;;;;;;;;5419162;26;20288;-69
2024/04/22 00:11:00;;;;;;;3.33;2.77;;;;;;;;;;5414506;26;20274;-68
2024/04/22 00:13:25;;;;;;;3.33;2.63;;;;;;;;;;5388299;26;20243;-69
2024/04/22 00:15:51;;;;;;;3.87;1.93;;;;;;;;;;5379712;26;20570;-68
2024/04/22 00:18:16;;;;;;;4.23;2.40;;;;;;;;;;5412672;26;20235;-69
2024/04/22 00:20:41;;;;;;;3.80;2.30;;;;;;;;;;5412109;26;20297;-69
2024/04/22 00:23:06;;;;;;;2.73;2.30;;;;;;;;;;5379976;26;20242;-69
2024/04/22 00:25:31;;;;;;;3.47;2.60;;;;;;;;;;5414689;26;20285;-70
2024/04/22 00:27:56;;;;;;;3.40;2.57;;;;;;;;;;5383308;26;20670;-69
2024/04/22 00:30:22;;;;;;;2.33;2.13;;;;;;;;;;5418712;26;20222;-70
2024/04/22 00:32:47;;;;;;;3.43;2.30;;;;;;;;;;5414835;26;20297;-68
2024/04/22 00:35:12;;;;;;;5.57;2.50;;;;;;;;;;5411890;26;20682;-69
2024/04/22 00:37:37;;;;;;;3.67;2.53;;;;;;;;;;5413500;26;20231;-69
2024/04/22 00:40:03;;;;;;;5.30;2.57;;;;;;;;;;5380930;26;20734;-68
2024/04/22 00:42:28;;;;;;;4.07;2.50;;;;;;;;;;5411171;26;20234;-69
2024/04/22 00:44:53;;;;;;;3.33;2.60;;;;;;;;;;5410966;26;20649;-68
2024/04/22 00:47:18;;;;;;;3.40;2.83;;;;;;;;;;5410621;26;20725;-68
2024/04/22 00:49:44;;;;;;;3.43;2.87;;;;;;;;;;5381319;26;20242;-69
2024/04/22 00:52:09;;;;;;;3.97;2.70;;;;;;;;;;5406611;26;20235;-68
2024/04/22 00:54:35;;;;;;;3.53;2.70;;;;;;;;;;5412295;26;20513;-69
2024/04/22 00:57:01;;;;;;;3.43;2.97;;;;;;;;;;5411996;26;20343;-68
2024/04/22 00:59:26;;;;;;;6.57;2.97;;;;;;;;;;5408260;26;20364;-68
2024/04/22 01:01:51;;;;;;;3.20;2.50;;;;;;;;;;5412217;26;20242;-69
2024/04/22 01:04:16;;;;;;;6.37;3.23;;;;;;;;;;5412510;26;20234;-69
2024/04/22 01:06:41;;;;;;;4.77;2.93;;;;;;;;;;5382365;26;20235;-69
2024/04/22 01:09:07;;;;;;;4.87;2.90;;;;;;;;;;5412894;26;20573;-68
2024/04/22 01:11:32;;;;;;;4.30;3.10;;;;;;;;;;5418304;26;20672;-68
2024/04/22 01:13:57;;;;;;;3.03;2.73;;;;;;;;;;5402743;26;20355;-69
2024/04/22 01:16:22;;;;;;;4.87;3.27;;;;;;;;;;5410293;26;21363;-68
2024/04/22 01:18:48;;;;;;;4.97;3.10;;;;;;;;;;5409982;26;20230;-69
2024/04/22 01:21:13;;;;;;;5.30;3.70;;;;;;;;;;5406882;26;20669;-69
2024/04/22 01:23:38;;;;;;;3.87;2.83;;;;;;;;;;5404237;26;20338;-69
2024/04/22 01:26:05;;;;;;;5.37;3.47;;;;;;;;;;5408938;26;20846;-69
2024/04/22 01:28:30;;;;;;;4.60;3.13;;;;;;;;;;5407234;26;20238;-69
2024/04/22 01:30:55;;;;;;;6.37;3.70;;;;;;;;;;5376256;26;20268;-68
2024/04/22 01:33:21;;;;;;;5.47;2.80;;;;;;;;;;5384506;26;20387;-69
2024/04/22 01:35:46;;;;;;;3.70;2.90;;;;;;;;;;5414354;26;20234;-68
2024/04/22 01:38:11;;;;;;;3.83;2.97;;;;;;;;;;5410366;26;20281;-69
2024/04/22 01:40:36;;;;;;;4.80;3.17;;;;;;;;;;5399363;26;20292;-69
2024/04/22 01:43:02;;;;;;;4.53;2.97;;;;;;;;;;5397312;26;20280;-68
2024/04/22 01:45:27;;;;;;;4.10;3.70;;;;;;;;;;5409375;26;20749;-68
2024/04/22 01:47:52;;;;;;;4.17;2.93;;;;;;;;;;5399679;26;20242;-69
2024/04/22 01:50:17;;;;;;;4.83;3.80;;;;;;;;;;5402440;26;20718;-69
2024/04/22 01:52:42;;;;;;;3.53;2.97;;;;;;;;;;5398245;26;20228;-69
2024/04/22 01:55:08;;;;;;;4.30;2.97;;;;;;;;;;5390209;26;20278;-69
2024/04/22 01:57:33;;;;;;;3.47;3.03;;;;;;;;;;5407979;26;20230;-69
2024/04/22 01:59:58;;;;;;;3.83;3.07;;;;;;;;;;5396660;26;20231;-69
2024/04/22 02:02:23;;;;;;;4.77;3.53;;;;;;;;;;5377540;26;20235;-69
2024/04/22 02:04:48;;;;;;;4.17;3.77;;;;;;;;;;5405459;26;20739;-70
2024/04/22 02:07:14;;;;;;;5.00;3.67;;;;;;;;;;5413723;26;20281;-68
2024/04/22 02:09:39;;;;;;;4.07;3.40;;;;;;;;;;5396138;26;20275;-69
2024/04/22 02:12:04;;;;;;;6.27;3.50;;;;;;;;;;5375831;26;20746;-69
2024/04/22 02:14:30;;;;;;;4.40;3.30;;;;;;;;;;5391990;26;20242;-69
2024/04/22 02:16:55;;;;;;;5.93;3.50;;;;;;;;;;5402227;26;20250;-69
2024/04/22 02:19:20;;;;;;;6.33;4.37;;;;;;;;;;5404314;26;20563;-69
2024/04/22 02:21:45;;;;;;;4.90;3.67;;;;;;;;;;5406613;26;20222;-70
2024/04/22 02:24:11;;;;;;;4.63;3.70;;;;;;;;;;5400147;26;20590;-69
2024/04/22 02:26:36;;;;;;;4.23;2.93;;;;;;;;;;5398705;26;20278;-69
2024/04/22 02:29:01;;;;;;;6.40;3.80;;;;;;;;;;5401390;26;20272;-69
2024/04/22 02:31:26;;;;;;;9.87;4.03;;;;;;;;;;5395730;26;20292;-69
2024/04/22 02:33:51;;;;;;;5.20;3.87;;;;;;;;;;5375986;26;20269;-68
2024/04/22 02:36:17;;;;;;;5.47;3.00;;;;;;;;;;5409963;26;20331;-69
2024/04/22 02:38:42;;;;;;;4.70;3.87;;;;;;;;;;5402963;26;20596;-70
2024/04/22 02:41:07;;;;;;;4.90;3.17;;;;;;;;;;5399634;26;20274;-70
2024/04/22 02:43:32;;;;;;;4.10;3.50;;;;;;;;;;5397270;26;20243;-70
2024/04/22 02:45:57;;;;;;;5.60;3.33;;;;;;;;;;5393922;26;20243;-70
2024/04/22 02:48:23;;;;;;;4.40;3.07;;;;;;;;;;5392754;26;20768;-70
2024/04/22 02:50:48;;;;;;;5.37;3.70;;;;;;;;;;5416047;26;20219;-70
2024/04/22 02:53:13;;;;;;;6.03;3.27;;;;;;;;;;5404546;26;20231;-69
2024/04/22 02:55:38;;;;;;;5.27;3.60;;;;;;;;;;5405984;26;20281;-70
2024/04/22 02:58:03;;;;;;;8.17;4.73;;;;;;;;;;5403722;26;20742;-70
2024/04/22 03:00:29;;;;;;;4.50;3.40;;;;;;;;;;5402534;26;20293;-70
2024/04/22 03:02:54;;;;;;;5.80;3.53;;;;;;;;;;5414560;26;20235;-69
2024/04/22 03:05:19;;;;;;;4.40;3.37;;;;;;;;;;5407358;26;20235;-69
2024/04/22 03:07:45;;;;;;;4.00;2.90;;;;;;;;;;5408764;26;20315;-69
2024/04/22 03:10:10;;;;;;;4.03;3.40;;;;;;;;;;5391224;26;20433;-70
2024/04/22 03:12:35;;;;;;;12.10;3.17;;;;;;;;;;5399626;26;20235;-70
2024/04/22 03:15:01;;;;;;;5.53;2.97;;;;;;;;;;5394310;26;20286;-69
2024/04/22 03:17:26;;;;;;;4.50;2.90;;;;;;;;;;5403143;26;20231;-70
2024/04/22 03:19:52;;;;;;;4.83;2.60;;;;;;;;;;5395901;26;20303;-70
2024/04/22 03:22:17;;;;;;;3.67;2.50;;;;;;;;;;5399252;26;20231;-69
2024/04/22 03:24:43;;;;;;;6.60;3.13;;;;;;;;;;5390316;26;20251;-69
2024/04/22 03:27:08;;;;;;;5.53;2.67;;;;;;;;;;5413392;21;20247;-69
2024/04/22 03:29:33;;;;;;;4.87;2.57;;;;;;;;;;5465369;26;20244;-71
2024/04/22 03:31:58;;;;;;;4.77;2.03;;;;;;;;;;5459794;26;20237;-71
2024/04/22 03:34:23;;;;;;;4.30;2.80;;;;;;;;;;5464253;26;20658;-71
2024/04/22 03:36:49;;;;;;;5.70;2.20;;;;;;;;;;5470825;26;20236;-70
2024/04/22 03:39:14;;;;;;;4.57;2.30;;;;;;;;;;5449984;26;20237;-70
2024/04/22 03:41:39;;;;;;;4.13;2.10;;;;;;;;;;5446720;26;20234;-71
2024/04/22 03:44:04;;;;;;;2.03;1.53;;;;;;;;;;5448971;26;20272;-71
2024/04/22 03:51:57;;;;;;;3.53;2.20;;;;;;;;;;5439296;26;20280;-69
2024/04/22 03:54:23;;;;;;;2.33;1.80;;;;;;;;;;5448293;26;20234;-70
2024/04/22 03:56:48;;;;;;;2.60;2.40;;;;;;;;;;5451064;26;20284;-70
2024/04/22 03:59:13;;;;;;;4.70;2.03;;;;;;;;;;5448048;26;20291;-70
2024/04/22 04:01:38;;;;;;;2.67;1.77;;;;;;;;;;5462799;26;20684;-70
2024/04/22 04:04:03;;;;;;;2.80;2.13;;;;;;;;;;5423208;26;20242;-72
2024/04/22 04:06:29;;;;;;;2.37;1.93;;;;;;;;;;5453551;26;20242;-71
2024/04/22 04:08:54;;;;;;;4.83;2.13;;;;;;;;;;5419033;26;20238;-71
2024/04/22 04:11:23;;;;;;;6.67;2.00;;;;;;;;;;5414009;26;20365;-71
2024/04/22 04:13:48;;;;;;;2.33;1.70;;;;;;;;;;5447325;26;20234;-71
2024/04/22 04:16:14;;;;;;;6.87;1.87;;;;;;;;;;5437950;26;20280;-71
2024/04/22 04:18:39;;;;;;;1.80;1.47;;;;;;;;;;5456401;26;20281;-70
2024/04/22 04:21:04;;;;;;;4.20;1.90;;;;;;;;;;5449389;26;20286;-70
2024/04/22 04:23:30;;;;;;;4.10;1.80;;;;;;;;;;5413419;26;20767;-71
2024/04/22 04:25:55;;;;;;;1.70;1.50;;;;;;;;;;5443101;26;20280;-70
2024/04/22 04:28:20;;;;;;;2.50;1.40;;;;;;;;;;5447850;26;20260;-70
2024/04/22 04:30:54;;;;;;;4.37;1.70;;;;;;;;;;5447721;26;20257;-70
2024/04/22 04:33:19;;;;;;;4.83;1.47;;;;;;;;;;5448308;26;20246;-71
2024/04/22 04:35:45;;;;;;;4.80;1.63;;;;;;;;;;5419548;26;20354;-71
2024/04/22 04:38:10;;;;;;;2.80;1.83;;;;;;;;;;5453822;26;20279;-71
2024/04/22 04:40:35;;;;;;;3.20;2.10;;;;;;;;;;5439829;26;20245;-72
2024/04/22 04:43:00;;;;;;;6.37;2.07;;;;;;;;;;5447932;26;20226;-71
2024/04/22 04:45:25;;;;;;;2.70;1.87;;;;;;;;;;5442235;26;20229;-71
2024/04/22 04:47:53;;;;;;;6.23;2.43;;;;;;;;;;5445101;26;20319;-72
2024/04/22 04:50:18;;;;;;;3.70;1.73;;;;;;;;;;5440294;26;20309;-71
2024/04/22 04:52:43;;;;;;;4.43;2.37;;;;;;;;;;5399112;26;20233;-73
2024/04/22 04:55:09;;;;;;;5.40;3.13;;;;;;;;;;5446563;26;20234;-71
2024/04/22 04:57:34;;;;;;;4.60;2.73;;;;;;;;;;5415110;26;20797;-71
2024/04/22 04:59:59;;;;;;;4.50;2.87;;;;;;;;;;5420416;26;20246;-71
2024/04/22 05:02:25;;;;;;;5.90;3.70;;;;;;;;;;5442967;26;20250;-71
2024/04/22 05:04:50;;;;;;;5.83;2.67;;;;;;;;;;5444468;26;20230;-71
2024/04/22 05:07:15;;;;;;;3.87;3.37;;;;;;;;;;5447490;26;20284;-71
2024/04/22 05:09:41;;;;;;;4.50;3.40;;;;;;;;;;5445443;26;20230;-71
2024/04/22 05:12:06;;;;;;;3.90;2.83;;;;;;;;;;5443353;26;20280;-72
2024/04/22 05:14:32;;;;;;;5.90;3.60;;;;;;;;;;5446214;26;20238;-71
2024/04/22 05:16:57;;;;;;;4.87;2.87;;;;;;;;;;5416190;26;20259;-71
2024/04/22 05:19:22;;;;;;;6.37;3.07;;;;;;;;;;5447565;26;20284;-71
2024/04/22 05:21:47;;;;;;;4.33;2.73;;;;;;;;;;5441309;26;20293;-70
2024/04/22 05:24:13;;;;;;;7.83;3.13;;;;;;;;;;5445523;26;20230;-72
2024/04/22 05:26:38;;;;;;;4.60;3.03;;;;;;;;;;5437160;26;20313;-71
2024/04/22 05:29:03;;;;;;;4.00;2.67;;;;;;;;;;5405212;26;20276;-71
2024/04/22 05:31:29;;;;;;;4.17;2.70;;;;;;;;;;5444442;26;20359;-71
2024/04/22 05:36:38;;;;;;;6.27;3.27;;;;;;;;;;5455121;26;20318;-71
2024/04/22 05:39:03;;;;;;;4.77;3.20;;;;;;;;;;5446699;26;20751;-70
2024/04/22 05:41:29;;;;;;;4.43;2.60;;;;;;;;;;5444212;26;20276;-70
2024/04/22 05:43:54;;;;;;;4.60;2.63;;;;;;;;;;5451013;26;20234;-70
2024/04/22 05:46:20;;;;;;;6.50;3.00;;;;;;;;;;5447801;26;20349;-70
2024/04/22 05:48:45;;;;;;;5.10;2.90;;;;;;;;;;5447141;26;20237;-70
2024/04/22 05:51:10;;;;;;;6.37;3.20;;;;;;;;;;5443014;26;20598;-71
2024/04/22 05:53:35;;;;;;;4.83;3.13;;;;;;;;;;5437783;26;20241;-71
2024/04/22 05:56:00;;;;;;;5.73;2.57;;;;;;;;;;5447493;26;20284;-71
2024/04/22 05:58:25;;;;;;;4.60;3.20;;;;;;;;;;5445880;26;20249;-70
2024/04/22 06:00:51;;;;;;;4.17;2.57;;;;;;;;;;5448840;26;20238;-71
2024/04/22 06:03:16;;;;;;;4.93;2.87;;;;;;;;;;5442045;26;20280;-71
2024/04/22 06:05:41;;;;;;;5.97;2.70;;;;;;;;;;5413756;26;20318;-71
2024/04/22 06:08:06;;;;;;;6.93;2.83;;;;;;;;;;5455198;26;20370;-71
2024/04/22 06:10:32;;;;;;;8.43;2.87;;;;;;;;;;5446260;26;20229;-70
2024/04/22 06:12:57;;;;;;;9.30;2.70;;;;;;;;;;5453274;26;20329;-70
2024/04/22 06:15:22;;;;;;;4.40;2.87;;;;;;;;;;5447161;26;20391;-70
2024/04/22 06:17:47;;;;;;;7.47;2.57;;;;;;;;;;5410239;26;20646;-71
2024/04/22 06:20:13;;;;;;;6.03;2.23;;;;;;;;;;5451086;26;20242;-70
2024/04/22 06:22:39;;;;;;;3.67;2.37;;;;;;;;;;5448431;26;20237;-71
2024/04/22 06:25:05;;;;;;;10.60;2.17;;;;;;;;;;5454822;26;20829;-71
2024/04/22 06:27:30;;;;;;;6.30;2.40;;;;;;;;;;5446875;26;20246;-72
2024/04/22 06:29:55;;;;;;;4.30;2.20;;;;;;;;;;5451512;26;20800;-72
2024/04/22 06:32:20;;;;;;;4.67;2.33;;;;;;;;;;5444532;26;20292;-72
2024/04/22 06:34:45;;;;;;;2.80;2.13;;;;;;;;;;5450370;26;20564;-71
2024/04/22 06:37:11;;;;;;;2.97;1.80;;;;;;;;;;5450187;26;20234;-71
2024/04/22 06:39:36;;;;;;;3.17;2.20;;;;;;;;;;5450443;26;20416;-71
2024/04/22 06:42:01;;;;;;;7.37;2.80;;;;;;;;;;5445654;26;20234;-71
2024/04/22 06:44:26;;;;;;;9.20;2.57;;;;;;;;;;5448100;26;20709;-70
2024/04/22 06:46:51;;;;;;;6.20;2.03;;;;;;;;;;5439595;26;20284;-70
2024/04/22 06:49:17;;;;;;;4.53;2.17;;;;;;;;;;5440052;26;20237;-71
2024/04/22 06:51:42;;;;;;;2.70;2.07;;;;;;;;;;5411185;26;20242;-71
2024/04/22 06:54:07;;;;;;;6.77;2.17;;;;;;;;;;5454900;26;20229;-70
2024/04/22 06:56:32;;;;;;;6.03;2.23;;;;;;;;;;5453895;26;20263;-70
2024/04/22 06:58:57;;;;;;;7.27;2.73;;;;;;;;;;5447949;26;20394;-71
2024/04/22 07:01:22;;;;;;;3.17;1.93;;;;;;;;;;5419783;26;20246;-71
2024/04/22 07:03:48;;;;;;;4.23;2.03;;;;;;;;;;5445953;26;20233;-71
2024/04/22 07:06:15;;;;;;;8.20;1.93;;;;;;;;;;5457080;26;20283;-71
2024/04/22 07:08:40;;;;;;;3.83;2.90;;;;;;;;;;5447463;26;20254;-71
2024/04/22 07:11:05;;;;;;;3.90;1.97;;;;;;;;;;5443092;26;20341;-71
2024/04/22 07:13:31;;;;;;;6.30;2.50;;;;;;;;;;5445927;26;20334;-72
2024/04/22 07:15:56;;;;;;;5.53;2.20;;;;;;;;;;5444038;26;20342;-71
2024/04/22 07:18:21;;;;;;;7.23;2.47;;;;;;;;;;5440610;26;20310;-71
2024/04/22 07:20:46;;;;;;;11.20;2.67;;;;;;;;;;5439390;26;20230;-71
2024/04/22 07:23:11;;;;;;;7.93;2.70;;;;;;;;;;5437411;26;20242;-71
2024/04/22 07:25:37;;;;;;;4.20;1.97;;;;;;;;;;5439551;26;20342;-71
2024/04/22 07:28:02;;;;;;;7.67;2.37;;;;;;;;;;5442898;26;20350;-70
2024/04/22 07:30:27;;;;;;;4.90;2.25;;;;;;;;;;5450128;26;20272;-72
2024/04/22 07:32:53;;;;;;;3.65;1.73;;;;;;;;;;5454646;26;20233;-71
2024/04/22 07:35:18;;;;;;;5.55;1.92;;;;;;;;;;5447671;26;20276;-71
2024/04/22 07:37:45;;;;;;;5.57;1.80;;;;;;;;;;5441880;26;20221;-72
2024/04/22 07:40:12;;;;;;;7.93;1.95;;;;;;;;;;5441527;26;20913;-70
2024/04/22 07:42:37;;;;;;;5.78;1.80;;;;;;;;;;5448485;26;20249;-71
2024/04/22 07:45:03;;;;;;;5.18;1.60;;;;;;;;;;5432258;26;20269;-71
2024/04/22 07:47:28;;;;;;;3.75;1.80;;;;;;;;;;5445101;26;20242;-70
2024/04/22 07:49:53;;;;;;;4.10;1.90;;;;;;;;;;5443320;26;20263;-71
2024/04/22 07:52:18;;;;;;;6.03;2.17;;;;;;;;;;5449962;26;20230;-70
2024/04/22 07:54:44;;;;;;;3.03;1.85;;;;;;;;;;5450935;26;20214;-70
2024/04/22 07:57:09;;;;;;;5.97;1.88;;;;;;;;;;5449158;26;20226;-71
2024/04/22 07:59:35;;;;;;;8.57;2.53;;;;;;;;;;5445017;26;20651;-71
2024/04/22 08:02:00;;;;;;;7.15;1.70;;;;;;;;;;5451044;26;20331;-71
2024/04/22 08:04:25;;;;;;;4.00;2.15;;;;;;;;;;5446721;26;20760;-71
2024/04/22 08:06:52;;;;;;;5.63;1.80;;;;;;;;;;5451048;26;20234;-70
2024/04/22 08:09:17;;;;;;;4.70;2.50;;;;;;;;;;5448066;26;20309;-71
2024/04/22 08:11:43;;;;;;;4.35;2.00;;;;;;;;;;5450614;26;20763;-70
2024/04/22 08:14:08;;;;;;;6.25;2.53;;;;;;;;;;5446926;26;20237;-69
2024/04/22 08:16:34;;;;;;;4.85;1.75;;;;;;;;;;5455357;26;20340;-70
2024/04/22 08:18:59;;;;;;;5.60;1.65;;;;;;;;;;5446465;26;20233;-69
2024/04/22 08:21:24;;;;;;;6.35;1.42;;;;;;;;;;5445195;26;20272;-71
2024/04/22 08:23:49;;;;;;;4.57;2.10;;;;;;;;;;5436386;26;20857;-70
2024/04/22 08:26:14;;;;;;;4.90;2.00;;;;;;;;;;5443871;26;20238;-70
2024/04/22 08:28:40;;;;;;;8.15;2.13;;;;;;;;;;5420365;26;20247;-70
2024/04/22 08:31:06;;;;;;;7.75;2.08;;;;;;;;;;5445980;26;20595;-71
2024/04/22 08:33:31;;;;;;;2.17;1.50;;;;;;;;;;5442987;26;20864;-71
2024/04/22 08:35:57;;;;;;;6.88;1.92;;;;;;;;;;5448446;26;20217;-71
2024/04/22 08:38:22;;;;;;;6.53;1.52;;;;;;;;;;5459010;26;20782;-71
2024/04/22 08:40:48;;;;;;;5.38;1.50;;;;;;;;;;5454269;26;20338;-71
2024/04/22 08:43:15;;;;;;;7.28;1.42;;;;;;;;;;5445779;26;20229;-71
2024/04/22 08:45:44;;;;;;;3.50;1.25;;;;;;;;;;5444145;26;20227;-71
2024/04/22 08:48:10;;;;;;;3.72;1.52;;;;;;;;;;5443910;26;20238;-71
2024/04/22 08:50:37;;;;;;;5.90;1.63;;;;;;;;;;5452468;26;20264;-71
2024/04/22 08:53:03;;;;;;;3.70;1.30;;;;;;;;;;5450779;26;20233;-70
2024/04/22 08:55:28;;;;;;;4.82;1.48;;;;;;;;;;5418388;26;20233;-69
2024/04/22 08:57:54;;;;;;;4.07;1.63;;;;;;;;;;5450116;26;20289;-70
2024/04/22 09:00:19;;;;;;;5.18;1.30;;;;;;;;;;5413145;26;20740;-70
2024/04/22 09:02:44;;;;;;;3.22;1.10;;;;;;;;;;5442605;26;20229;-69
2024/04/22 09:05:10;;;;;;;2.75;1.50;;;;;;;;;;5416590;26;20305;-69
2024/04/22 09:07:35;;;;;;;6.13;1.27;;;;;;;;;;5457658;26;20225;-69
2024/04/22 09:10:00;;;;;;;3.38;1.02;;;;;;;;;;5446905;26;20233;-71
2024/04/22 09:12:25;;;;;;;3.78;1.17;;;;;;;;;;5443462;26;20249;-69
2024/04/22 09:14:57;;;;;;;2.80;1.10;;;;;;;;;;5418340;26;20322;-70
2024/04/22 09:17:22;;;;;;;1.77;0.77;;;;;;;;;;5456578;26;20233;-70
2024/04/22 09:19:47;;;;;;;4.47;1.23;;;;;;;;;;5445624;26;20260;-70
2024/04/22 09:22:15;;;;;;;2.20;1.08;;;;;;;;;;5410134;26;20273;-71
2024/04/22 09:24:40;;;;;;;2.22;1.20;;;;;;;;;;5443000;26;20608;-69
2024/04/22 09:27:05;;;;;;;2.22;1.40;;;;;;;;;;5447701;26;20233;-69
2024/04/22 09:32:01;;;;;;;5.13;1.67;;;;;;;;;;5407146;26;20761;-69
2024/04/22 09:34:27;;;;;;;2.42;0.90;;;;;;;;;;5415542;26;20230;-69
2024/04/22 09:36:53;;;;;;;4.30;1.30;;;;;;;;;;5423954;26;20338;-69
2024/04/22 09:39:19;;;;;;;1.30;1.13;;;;;;;;;;5396694;26;20243;-68
2024/04/22 09:41:45;;;;;;;3.85;0.90;;;;;;;;;;5383928;26;20290;-68
2024/04/22 09:44:10;;;;;;;4.03;1.20;;;;;;;;;;5393419;26;20343;-68
2024/04/22 09:46:37;;;;;;;3.28;1.02;;;;;;;;;;5390207;26;20689;-68
2024/04/22 09:49:04;;;;;;;3.38;1.30;;;;;;;;;;5404500;26;20257;-67
2024/04/22 09:51:30;;;;;;;5.05;1.10;;;;;;;;;;5397026;26;20278;-68
2024/04/22 09:53:56;;;;;;;4.50;1.75;;;;;;;;;;5393249;26;20242;-68
2024/04/22 09:56:24;;;;;;;4.30;1.30;;;;;;;;;;5387212;26;20278;-69
2024/04/22 09:58:49;;;;;;;5.88;1.30;;;;;;;;;;5404723;26;20741;-69
2024/04/22 10:01:15;;;;;;;1.92;1.25;;;;;;;;;;5385354;26;20220;-70
2024/04/22 10:03:40;;;;;;;1.75;1.30;;;;;;;;;;5388424;26;20290;-67
2024/04/22 10:06:06;;;;;;;4.53;1.45;;;;;;;;;;5391364;26;20278;-68
2024/04/22 10:08:32;;;;;;;2.95;1.83;;;;;;;;;;5400112;26;20265;-68
2024/04/22 10:11:06;;;;;;;1.30;1.20;;;;;;;;;;5393128;26;20270;-68
2024/04/22 10:13:32;;;;;;;3.47;1.60;;;;;;;;;;5391685;26;20318;-68
2024/04/22 10:15:58;;;;;;;6.32;1.75;;;;;;;;;;5396376;26;20346;-69
2024/04/22 10:18:23;;;;;;;3.25;1.80;;;;;;;;;;5402130;26;20867;-68
2024/04/22 10:20:48;;;;;;;2.22;1.35;;;;;;;;;;5385472;26;20232;-69
2024/04/22 10:23:14;;;;;;;4.25;1.42;;;;;;;;;;5391218;26;20289;-69
2024/04/22 10:25:39;;;;;;;2.50;1.25;;;;;;;;;;5396486;26;20240;-69
2024/04/22 10:28:04;;;;;;;1.45;1.35;;;;;;;;;;5393629;26;20242;-69
2024/04/22 10:30:33;;;;;;;1.67;1.33;;;;;;;;;;5419516;26;20241;-69
2024/04/22 10:32:58;;;;;;;2.15;1.33;;;;;;;;;;5461901;26;20642;-69
2024/04/22 10:35:24;;;;;;;2.25;1.60;;;;;;;;;;5468401;26;20233;-69
2024/04/22 10:37:49;;;;;;;5.55;1.50;;;;;;;;;;5457417;26;20306;-69
2024/04/22 10:40:14;;;;;;;2.28;1.25;;;;;;;;;;5466438;26;20236;-69
2024/04/22 10:42:39;;;;;;;1.90;1.50;;;;;;;;;;5462594;26;20283;-69
2024/04/22 10:45:05;;;;;;;3.35;1.70;;;;;;;;;;5461555;26;20571;-69
2024/04/22 10:47:30;;;;;;;1.92;1.70;;;;;;;;;;5473296;26;20232;-70
2024/04/22 10:49:55;;;;;;;4.60;1.80;;;;;;;;;;5468549;26;20782;-69
2024/04/22 10:52:22;;;;;;;1.45;1.33;;;;;;;;;;5469550;26;20344;-69
2024/04/22 10:54:47;;;;;;;3.45;1.70;;;;;;;;;;5459652;26;20237;-70
2024/04/22 10:57:13;;;;;;;2.27;1.37;;;;;;;;;;5423699;26;20693;-70
2024/04/22 10:59:38;;;;;;;3.80;1.65;;;;;;;;;;5451810;26;20249;-70
2024/04/22 11:02:04;;;;;;;3.20;2.00;;;;;;;;;;5458424;26;20264;-69
2024/04/22 11:04:29;;;;;;;2.53;1.40;;;;;;;;;;5424166;26;20245;-70
2024/04/22 11:06:55;;;;;;;3.53;1.93;;;;;;;;;;5473027;26;20237;-69
2024/04/22 11:09:20;;;;;;;2.27;1.80;;;;;;;;;;5460913;26;20241;-70
2024/04/22 11:11:46;;;;;;;1.90;1.57;;;;;;;;;;5462134;26;20337;-70
2024/04/22 11:14:12;;;;;;;1.63;1.50;;;;;;;;;;5462228;26;20647;-69
2024/04/22 11:16:38;;;;;;;2.40;1.40;;;;;;;;;;5467620;26;20237;-69
2024/04/22 11:19:04;;;;;;;3.07;1.43;;;;;;;;;;5462226;26;20287;-69
2024/04/22 11:21:29;;;;;;;3.43;1.70;;;;;;;;;;5455672;26;20233;-69
2024/04/22 11:23:55;;;;;;;3.43;2.17;;;;;;;;;;5456190;26;20349;-68
2024/04/22 11:26:20;;;;;;;3.33;2.00;;;;;;;;;;5467969;26;20340;-69
2024/04/22 11:28:51;;;;;;;2.70;1.80;;;;;;;;;;5453675;26;20218;-69
2024/04/22 11:31:16;;;;;;;2.60;2.13;;;;;;;;;;5437393;26;20266;-68
2024/04/22 11:33:41;;;;;;;3.65;2.03;;;;;;;;;;5464539;26;20226;-69
2024/04/22 11:36:08;;;;;;;5.93;1.75;;;;;;;;;;5456474;26;20238;-70
2024/04/22 11:38:33;;;;;;;2.70;2.10;;;;;;;;;;5463532;26;20259;-69
2024/04/22 11:40:59;;;;;;;4.05;2.20;;;;;;;;;;5456798;26;20657;-70
2024/04/22 11:43:24;;;;;;;4.18;1.77;;;;;;;;;;5431690;26;20245;-70
2024/04/22 11:45:51;;;;;;;3.88;1.85;;;;;;;;;;5464219;26;20238;-69
2024/04/22 11:48:16;;;;;;;5.00;2.25;;;;;;;;;;5458877;26;20257;-68
2024/04/22 11:50:41;;;;;;;5.05;2.17;;;;;;;;;;5474015;26;20766;-69
2024/04/22 11:53:07;;;;;;;2.85;2.28;;;;;;;;;;5464884;26;20256;-68
2024/04/22 11:55:32;;;;;;;6.50;2.88;;;;;;;;;;5464481;26;20358;-70
2024/04/22 11:57:57;;;;;;;2.80;1.83;;;;;;;;;;5465613;26;20230;-69
2024/04/22 12:00:23;;;;;;;5.10;2.30;;;;;;;;;;5441090;26;20233;-68
2024/04/22 12:02:48;;;;;;;2.97;2.05;;;;;;;;;;5462255;26;20255;-68
2024/04/22 12:05:14;;;;;;;2.58;2.08;;;;;;;;;;5475244;26;20341;-68
2024/04/22 12:07:43;;;;;;;3.88;2.20;;;;;;;;;;5451848;26;20229;-68
2024/04/22 12:10:08;;;;;;;5.20;2.33;;;;;;;;;;5448013;26;20408;-68
2024/04/22 12:12:33;;;;;;;3.35;2.10;;;;;;;;;;5461288;26;20354;-70
2024/04/22 12:14:59;;;;;;;2.45;2.17;;;;;;;;;;5458948;26;20788;-70
2024/04/22 12:17:24;;;;;;;4.78;2.13;;;;;;;;;;5454941;26;20229;-70
2024/04/22 12:19:50;;;;;;;2.30;1.65;;;;;;;;;;5462247;26;20268;-70
2024/04/22 12:22:15;;;;;;;2.67;1.70;;;;;;;;;;5474821;26;20763;-69
2024/04/22 12:24:40;;;;;;;5.53;2.42;;;;;;;;;;5441195;26;20241;-70
2024/04/22 12:27:06;;;;;;;1.92;1.67;;;;;;;;;;5476224;26;20279;-69
2024/04/22 12:29:31;;;;;;;4.82;2.30;;;;;;;;;;5460128;26;20686;-69
2024/04/22 12:31:56;;;;;;;2.10;1.90;;;;;;;;;;5463945;26;20227;-70
2024/04/22 12:34:21;;;;;;;2.88;1.70;;;;;;;;;;5465005;26;20318;-69
2024/04/22 12:36:46;;;;;;;3.20;1.77;;;;;;;;;;5462612;26;20309;-68
2024/04/22 12:39:12;;;;;;;1.63;1.42;;;;;;;;;;5475537;26;20317;-69
2024/04/22 12:41:37;;;;;;;6.50;1.85;;;;;;;;;;5481776;26;20329;-68
2024/04/22 12:44:02;;;;;;;2.55;1.85;;;;;;;;;;5474295;26;20240;-69
2024/04/22 12:46:29;;;;;;;2.17;1.63;;;;;;;;;;5474867;26;20274;-68
2024/04/22 12:51:39;;;;;;;4.55;1.73;;;;;;;;;;5473492;26;20265;-69
2024/04/22 12:54:04;;;;;;;2.42;1.60;;;;;;;;;;5470292;26;20232;-69
2024/04/22 12:56:29;;;;;;;3.15;1.80;;;;;;;;;;5472704;26;20220;-70
2024/04/22 12:58:56;;;;;;;3.50;2.00;;;;;;;;;;5482394;26;20229;-69
2024/04/22 13:01:21;;;;;;;2.92;1.85;;;;;;;;;;5407181;26;20241;-69
2024/04/22 13:03:46;;;;;;;1.83;1.40;;;;;;;;;;5475695;26;20237;-69
2024/04/22 13:06:11;;;;;;;4.45;1.50;;;;;;;;;;5432336;26;20302;-69
2024/04/22 13:08:36;;;;;;;3.45;2.05;;;;;;;;;;5477478;26;20225;-69
2024/04/22 13:11:02;;;;;;;2.50;1.52;;;;;;;;;;5470494;26;20301;-70
2024/04/22 13:13:27;;;;;;;2.38;1.42;;;;;;;;;;5475539;26;20232;-69
2024/04/22 13:15:52;;;;;;;3.70;1.50;;;;;;;;;;5473467;26;20267;-70
2024/04/22 13:18:17;;;;;;;2.55;1.45;;;;;;;;;;5470827;26;20217;-69
2024/04/22 13:20:42;;;;;;;2.22;1.60;;;;;;;;;;5473354;26;20313;-70
2024/04/22 13:23:08;;;;;;;3.42;1.52;;;;;;;;;;5471913;26;20276;-69
2024/04/22 13:25:33;;;;;;;2.80;1.27;;;;;;;;;;5478969;26;20240;-68
2024/04/22 13:27:58;;;;;;;1.92;1.27;;;;;;;;;;5477454;26;20275;-69
2024/04/22 13:30:23;;;;;;;3.45;1.05;;;;;;;;;;5488510;26;20914;-68
2024/04/22 13:32:50;;;;;;;2.95;1.55;;;;;;;;;;5476155;26;20263;-69
2024/04/22 13:35:15;;;;;;;2.95;1.25;;;;;;;;;;5486090;26;20802;-69
2024/04/22 13:37:41;;;;;;;1.48;1.38;;;;;;;;;;5431763;26;20299;-69
2024/04/22 13:40:06;;;;;;;1.48;1.00;;;;;;;;;;5489681;26;20229;-69
2024/04/22 13:42:32;;;;;;;1.35;0.98;;;;;;;;;;5477476;26;20575;-68
2024/04/22 13:44:57;;;;;;;1.48;0.98;;;;;;;;;;5475533;26;20230;-68
2024/04/22 13:47:22;;;;;;;1.95;1.05;;;;;;;;;;5468872;26;20741;-68
2024/04/22 13:49:48;;;;;;;1.90;1.17;;;;;;;;;;5485670;26;20229;-69
2024/04/22 13:52:13;;;;;;;2.50;1.15;;;;;;;;;;5477554;26;20237;-68
2024/04/22 13:54:38;;;;;;;0.90;0.80;;;;;;;;;;5483436;26;20275;-68
2024/04/22 13:57:03;;;;;;;2.03;1.00;;;;;;;;;;5482694;26;20232;-68
2024/04/22 13:59:29;;;;;;;2.00;1.00;;;;;;;;;;5482520;26;20618;-68
2024/04/22 14:01:54;;;;;;;2.78;1.10;;;;;;;;;;5475236;26;20233;-69
2024/04/22 14:04:19;;;;;;;1.15;1.08;;;;;;;;;;5481558;26;20304;-68
2024/04/22 14:06:44;;;;;;;2.38;0.73;;;;;;;;;;5473818;26;20232;-69
2024/04/22 14:09:09;;;;;;;2.65;1.02;;;;;;;;;;5459867;26;20234;-69
2024/04/22 14:11:35;;;;;;;1.00;0.70;;;;;;;;;;5469134;26;20623;-69
2024/04/22 14:14:00;;;;;;;2.63;0.70;;;;;;;;;;5479561;26;20218;-68
2024/04/22 14:16:25;;;;;;;2.72;1.05;;;;;;;;;;5432555;26;20264;-68
2024/04/22 14:18:52;;;;;;;2.28;0.98;;;;;;;;;;5473284;26;20443;-70
2024/04/22 14:21:18;;;;;;;1.35;1.02;;;;;;;;;;5453339;26;20267;-67
2024/04/22 14:23:43;;;;;;;3.65;0.85;;;;;;;;;;5481768;26;20229;-68
2024/04/22 14:26:08;;;;;;;1.00;0.90;;;;;;;;;;5481969;26;20279;-68
2024/04/22 14:28:33;;;;;;;2.17;0.90;;;;;;;;;;5481581;26;20236;-69
2024/04/22 14:30:58;;;;;;;0.85;0.77;;;;;;;;;;5465253;26;20642;-68
2024/04/22 14:33:24;;;;;;;2.25;0.98;;;;;;;;;;5455296;26;20376;-68
2024/04/22 14:35:49;;;;;;;1.85;0.93;;;;;;;;;;5470191;26;20341;-69
2024/04/22 14:38:14;;;;;;;1.13;0.80;;;;;;;;;;5482284;26;20236;-68
2024/04/22 14:40:39;;;;;;;2.20;0.88;;;;;;;;;;5460864;26;20241;-69
2024/04/22 14:43:05;;;;;;;2.15;1.10;;;;;;;;;;5447488;26;20324;-70
2024/04/22 14:45:30;;;;;;;0.75;0.70;;;;;;;;;;5451044;26;20232;-68